Time;durP1;ratioP1;P1;durP2;ratioP2;P2;SDS_P1;SDS_P2;PMS_P1;PMS_P2;Temp;Humidity;BMP_temperature;BMP_pressure;BME280_temperature;BME280_humidity;BME280_pressure;Samples;Min_cycle;Max_cycle;Signal;HPM_P1;HPM_P2
2023/07/25 00:02:22;;;;;;;7.85;3.00;;;17.40;86.30;;;;;;5078440;28;20025;-78
2023/07/25 00:04:48;;;;;;;5.40;2.50;;;17.40;86.30;;;;;;5096134;28;20082;-78
2023/07/25 00:07:13;;;;;;;4.97;2.13;;;17.40;86.30;;;;;;5095129;28;20029;-78
2023/07/25 00:09:39;;;;;;;5.45;2.28;;;17.40;86.30;;;;;;5094966;28;20100;-78
2023/07/25 00:12:05;;;;;;;5.10;2.33;;;17.30;86.20;;;;;;5095994;28;20032;-78
2023/07/25 00:14:32;;;;;;;3.88;2.08;;;17.30;85.80;;;;;;5094599;28;20032;-78
2023/07/25 00:16:58;;;;;;;2.80;1.90;;;17.20;85.00;;;;;;5078379;28;20012;-78
2023/07/25 00:19:23;;;;;;;5.13;2.28;;;17.10;84.80;;;;;;5078093;28;20082;-78
2023/07/25 00:21:49;;;;;;;4.05;2.20;;;16.80;84.90;;;;;;5078139;28;20024;-78
2023/07/25 00:24:14;;;;;;;5.85;2.83;;;16.60;85.50;;;;;;5095767;28;20033;-78
2023/07/25 00:26:40;;;;;;;6.00;2.70;;;16.50;86.00;;;;;;5095735;28;20029;-78
2023/07/25 00:29:05;;;;;;;4.53;2.30;;;16.50;86.70;;;;;;5094793;28;20036;-78
2023/07/25 00:31:31;;;;;;;4.68;2.17;;;16.50;86.90;;;;;;5077889;28;20029;-77
2023/07/25 00:33:57;;;;;;;5.47;2.47;;;16.50;87.10;;;;;;5094444;28;20029;-78
2023/07/25 00:36:22;;;;;;;4.60;2.50;;;16.50;87.40;;;;;;5094601;28;20032;-78
2023/07/25 00:38:48;;;;;;;5.30;2.30;;;16.50;87.30;;;;;;5094586;28;20028;-78
2023/07/25 00:41:13;;;;;;;7.95;2.88;;;16.60;87.30;;;;;;5095402;28;20078;-78
2023/07/25 00:43:39;;;;;;;6.15;2.67;;;16.60;87.30;;;;;;5095401;28;20029;-78
2023/07/25 00:46:05;;;;;;;4.75;2.47;;;16.60;87.30;;;;;;5077595;28;20181;-78
2023/07/25 00:48:31;;;;;;;5.28;2.63;;;16.60;87.20;;;;;;5094432;28;20052;-78
2023/07/25 00:50:57;;;;;;;4.95;2.70;;;16.50;87.20;;;;;;5077549;28;20029;-78
2023/07/25 00:53:23;;;;;;;6.53;2.78;;;16.50;87.10;;;;;;5095119;28;20032;-78
2023/07/25 00:55:50;;;;;;;5.60;2.67;;;16.50;87.20;;;;;;5095290;28;20080;-78
2023/07/25 00:58:16;;;;;;;5.45;2.90;;;16.60;87.30;;;;;;5094942;28;20110;-78
2023/07/25 01:00:44;;;;;;;4.97;3.13;;;16.50;87.30;;;;;;5094078;28;20028;-78
2023/07/25 01:03:11;;;;;;;4.05;2.92;;;16.60;87.40;;;;;;5093993;28;20067;-78
2023/07/25 01:05:45;;;;;;;4.10;2.70;;;16.50;87.40;;;;;;5093999;28;20020;-78
2023/07/25 01:08:11;;;;;;;5.55;2.88;;;16.50;87.40;;;;;;5093993;28;20028;-78
2023/07/25 01:10:38;;;;;;;4.97;2.78;;;16.50;87.40;;;;;;5093961;28;20040;-78
2023/07/25 01:13:05;;;;;;;5.43;3.08;;;16.50;87.30;;;;;;5094894;28;20013;-78
2023/07/25 01:15:31;;;;;;;7.03;3.00;;;16.40;87.30;;;;;;5094634;28;20032;-78
2023/07/25 01:17:57;;;;;;;5.18;2.78;;;16.40;87.40;;;;;;5093815;28;20077;-78
2023/07/25 01:20:24;;;;;;;5.63;3.03;;;16.40;87.40;;;;;;5093623;28;20021;-78
2023/07/25 01:22:51;;;;;;;7.07;3.20;;;16.40;87.40;;;;;;5093724;28;20058;-78
2023/07/25 01:25:17;;;;;;;5.10;2.83;;;16.40;87.40;;;;;;5093261;28;20020;-78
2023/07/25 01:27:42;;;;;;;7.45;2.58;;;16.30;87.10;;;;;;5094481;28;20036;-77
2023/07/25 01:30:08;;;;;;;5.05;2.70;;;16.30;86.70;;;;;;5076862;28;20028;-78
2023/07/25 01:32:35;;;;;;;3.63;2.75;;;16.30;86.80;;;;;;5094405;28;20115;-78
2023/07/25 01:35:00;;;;;;;5.38;3.05;;;16.20;87.30;;;;;;5094229;28;20033;-78
2023/07/25 01:37:26;;;;;;;5.18;2.90;;;16.20;87.60;;;;;;5076673;28;20467;-78
2023/07/25 01:39:52;;;;;;;5.95;3.28;;;16.20;87.60;;;;;;5076782;28;20044;-78
2023/07/25 01:42:17;;;;;;;7.05;2.92;;;16.20;87.60;;;;;;5093440;28;20048;-78
2023/07/25 01:44:43;;;;;;;6.15;3.20;;;16.20;87.40;;;;;;5093240;28;20021;-78
2023/07/25 01:47:08;;;;;;;9.50;3.50;;;16.20;87.40;;;;;;5076466;28;20103;-78
2023/07/25 01:49:34;;;;;;;6.47;3.10;;;16.20;87.50;;;;;;5093202;28;20033;-78
2023/07/25 01:52:00;;;;;;;8.00;3.35;;;16.20;87.70;;;;;;5093195;28;20037;-78
2023/07/25 01:54:25;;;;;;;6.90;3.15;;;16.20;87.90;;;;;;5093073;28;20028;-78
2023/07/25 01:56:51;;;;;;;6.80;3.25;;;16.20;87.90;;;;;;5076324;28;20479;-78
2023/07/25 01:59:17;;;;;;;6.10;3.15;;;16.20;87.90;;;;;;5092749;28;20037;-78
2023/07/25 02:01:43;;;;;;;4.82;3.15;;;16.20;87.80;;;;;;5092932;28;20092;-79
2023/07/25 02:04:08;;;;;;;5.97;3.40;;;16.20;87.60;;;;;;5092923;28;20035;-78
2023/07/25 02:06:34;;;;;;;8.10;3.53;;;16.10;87.60;;;;;;5093899;28;20050;-79
2023/07/25 02:08:59;;;;;;;7.55;3.67;;;16.00;87.70;;;;;;5076080;28;20028;-78
2023/07/25 02:11:25;;;;;;;7.13;3.42;;;16.00;87.80;;;;;;5092675;28;20043;-78
2023/07/25 02:13:51;;;;;;;7.13;3.53;;;16.00;87.80;;;;;;5093699;28;20028;-78
2023/07/25 02:16:16;;;;;;;6.13;3.45;;;16.00;87.90;;;;;;5093628;28;20039;-78
2023/07/25 02:18:42;;;;;;;4.45;3.10;;;16.00;87.90;;;;;;5093600;28;20024;-78
2023/07/25 02:21:08;;;;;;;5.28;3.25;;;16.00;87.30;;;;;;5093643;28;20106;-78
2023/07/25 02:23:33;;;;;;;5.00;3.25;;;16.00;87.30;;;;;;5092661;28;20479;-78
2023/07/25 02:25:59;;;;;;;4.30;3.17;;;15.90;87.20;;;;;;5092509;28;20032;-78
2023/07/25 02:28:24;;;;;;;5.18;2.90;;;15.90;87.50;;;;;;5092526;28;20123;-78
2023/07/25 02:30:50;;;;;;;6.75;3.50;;;15.80;87.50;;;;;;5092505;28;20016;-78
2023/07/25 02:33:16;;;;;;;7.38;3.35;;;15.70;88.90;;;;;;5092442;28;20581;-78
2023/07/25 02:35:41;;;;;;;6.35;3.47;;;15.70;88.30;;;;;;5092154;28;20038;-78
2023/07/25 02:38:08;;;;;;;4.38;3.20;;;15.70;88.50;;;;;;5075150;28;20481;-78
2023/07/25 02:40:33;;;;;;;7.82;3.85;;;15.70;88.80;;;;;;5092493;28;20070;-78
2023/07/25 02:43:01;;;;;;;4.97;3.58;;;15.70;89.00;;;;;;5092457;28;20028;-78
2023/07/25 02:45:26;;;;;;;6.57;3.15;;;15.70;88.90;;;;;;5092319;28;20027;-79
2023/07/25 02:47:52;;;;;;;7.05;3.67;;;15.70;88.80;;;;;;5093389;28;20029;-78
2023/07/25 02:50:18;;;;;;;4.95;2.95;;;15.70;88.80;;;;;;5093280;28;20031;-78
2023/07/25 02:52:43;;;;;;;7.07;2.88;;;15.80;88.40;;;;;;5092296;28;20056;-78
2023/07/25 02:55:09;;;;;;;6.03;3.30;;;15.70;87.30;;;;;;5092271;28;20036;-78
2023/07/25 02:57:35;;;;;;;7.75;3.78;;;15.60;87.30;;;;;;5075603;28;20024;-78
2023/07/25 03:00:00;;;;;;;5.90;2.83;;;15.50;87.80;;;;;;5075340;28;20045;-79
2023/07/25 03:02:26;;;;;;;5.72;2.85;;;15.50;88.10;;;;;;5092153;28;20070;-79
2023/07/25 03:04:52;;;;;;;4.97;3.03;;;15.50;87.70;;;;;;5092263;28;20048;-78
2023/07/25 03:07:17;;;;;;;5.90;2.85;;;15.40;88.00;;;;;;5092189;28;20112;-79
2023/07/25 03:09:44;;;;;;;2.78;2.30;;;15.40;88.10;;;;;;5092275;28;20025;-78
2023/07/25 03:12:09;;;;;;;6.00;2.95;;;15.40;88.10;;;;;;5075513;28;20028;-78
2023/07/25 03:14:35;;;;;;;5.70;3.08;;;15.40;88.30;;;;;;5092196;28;20111;-78
2023/07/25 03:17:01;;;;;;;4.05;3.35;;;15.30;88.30;;;;;;5092100;28;20043;-78
2023/07/25 03:19:26;;;;;;;6.50;3.03;;;15.10;88.50;;;;;;5091930;28;20055;-79
2023/07/25 03:21:52;;;;;;;6.22;3.38;;;15.00;89.00;;;;;;5092023;28;20115;-78
2023/07/25 03:24:17;;;;;;;7.25;3.00;;;14.90;89.60;;;;;;5092038;28;20099;-78
2023/07/25 03:26:43;;;;;;;6.05;3.22;;;14.90;89.80;;;;;;5092029;28;20033;-78
2023/07/25 03:29:09;;;;;;;4.25;2.90;;;15.00;89.80;;;;;;5091925;28;20096;-78
2023/07/25 03:31:34;;;;;;;5.45;3.00;;;15.00;89.70;;;;;;5092871;28;20032;-78
2023/07/25 03:34:00;;;;;;;5.25;3.20;;;15.10;90.10;;;;;;5091804;28;20032;-78
2023/07/25 03:36:26;;;;;;;9.55;4.10;;;15.10;89.30;;;;;;5075043;28;20028;-78
2023/07/25 03:38:51;;;;;;;6.95;3.17;;;15.10;88.90;;;;;;5091936;28;20040;-78
2023/07/25 03:41:17;;;;;;;8.65;3.20;;;15.10;88.90;;;;;;5091908;28;20046;-78
2023/07/25 03:43:42;;;;;;;6.00;2.97;;;15.10;88.90;;;;;;5075005;28;20032;-78
2023/07/25 03:46:08;;;;;;;5.03;2.97;;;15.10;88.10;;;;;;5091792;28;20028;-78
2023/07/25 03:48:34;;;;;;;4.15;2.92;;;15.20;87.90;;;;;;5094845;28;20029;-78
2023/07/25 03:50:59;;;;;;;6.68;3.17;;;15.10;87.70;;;;;;5095471;28;20096;-78
2023/07/25 03:53:25;;;;;;;6.25;2.92;;;15.10;87.70;;;;;;5095297;28;20621;-78
2023/07/25 03:55:50;;;;;;;6.97;3.22;;;15.10;87.80;;;;;;5095239;28;20036;-78
2023/07/25 03:58:16;;;;;;;4.50;3.03;;;15.10;88.40;;;;;;5078370;28;20044;-78
2023/07/25 04:00:42;;;;;;;3.75;2.80;;;15.10;87.50;;;;;;5078485;28;20020;-78
2023/07/25 04:03:07;;;;;;;5.80;2.83;;;15.00;87.80;;;;;;5095238;28;20036;-78
2023/07/25 04:05:33;;;;;;;5.80;3.03;;;14.80;87.30;;;;;;5095175;28;20032;-78
2023/07/25 04:07:59;;;;;;;5.18;2.80;;;14.70;88.10;;;;;;5095153;28;20039;-78
2023/07/25 04:10:26;;;;;;;6.88;3.15;;;14.70;88.60;;;;;;5096056;28;20024;-78
2023/07/25 04:12:52;;;;;;;4.95;2.88;;;14.70;88.70;;;;;;5096037;28;20039;-78
2023/07/25 04:15:18;;;;;;;5.07;3.38;;;14.70;88.60;;;;;;5095075;28;20024;-78
2023/07/25 04:17:43;;;;;;;8.40;3.60;;;14.70;88.50;;;;;;5078150;28;20029;-78
2023/07/25 04:20:09;;;;;;;4.50;2.92;;;14.70;88.90;;;;;;5094871;28;20025;-79
2023/07/25 04:22:35;;;;;;;5.20;3.50;;;14.70;88.60;;;;;;5095858;28;20025;-79
2023/07/25 04:25:00;;;;;;;5.15;3.55;;;14.70;88.50;;;;;;5094813;28;20097;-79
2023/07/25 04:27:30;;;;;;;7.50;3.78;;;14.60;88.70;;;;;;5094817;28;20098;-79
2023/07/25 04:29:56;;;;;;;6.80;3.65;;;14.60;89.40;;;;;;5095710;28;20052;-79
2023/07/25 04:32:22;;;;;;;5.88;3.28;;;14.60;90.20;;;;;;5077926;28;20025;-79
2023/07/25 04:34:47;;;;;;;5.70;3.28;;;14.70;89.70;;;;;;5077764;28;20032;-79
2023/07/25 04:37:13;;;;;;;4.68;3.17;;;14.70;89.70;;;;;;5094711;28;20067;-79
2023/07/25 04:39:38;;;;;;;6.70;3.80;;;14.60;89.40;;;;;;5094464;28;20029;-79
2023/07/25 04:42:04;;;;;;;5.60;3.70;;;14.60;89.80;;;;;;5077677;28;20044;-79
2023/07/25 04:44:30;;;;;;;6.28;3.33;;;14.70;89.80;;;;;;5077675;28;20029;-79
2023/07/25 04:46:56;;;;;;;6.40;3.20;;;14.70;89.70;;;;;;5094481;28;20029;-79
2023/07/25 04:49:21;;;;;;;6.20;3.42;;;14.70;89.40;;;;;;5094513;28;20487;-78
2023/07/25 04:51:47;;;;;;;9.23;3.67;;;14.70;89.40;;;;;;5094349;28;20024;-78
2023/07/25 04:54:13;;;;;;;7.40;3.95;;;14.70;89.40;;;;;;5095138;28;20082;-78
2023/07/25 04:56:40;;;;;;;6.72;3.70;;;14.50;89.60;;;;;;5077438;28;20025;-78
2023/07/25 04:59:06;;;;;;;8.52;4.07;;;14.40;90.10;;;;;;5093450;28;20048;-78
2023/07/25 05:01:32;;;;;;;7.88;4.07;;;14.40;90.50;;;;;;5077378;28;20029;-78
2023/07/25 05:03:58;;;;;;;7.70;4.13;;;14.50;90.60;;;;;;5077321;28;20021;-78
2023/07/25 05:06:23;;;;;;;6.78;4.00;;;14.60;90.80;;;;;;5094009;28;20055;-78
2023/07/25 05:08:49;;;;;;;8.38;4.70;;;14.70;90.90;;;;;;5094063;28;20030;-78
2023/07/25 05:11:14;;;;;;;7.25;4.80;;;14.70;90.80;;;;;;5093954;28;20041;-78
2023/07/25 05:13:40;;;;;;;7.97;4.70;;;14.80;90.80;;;;;;5077137;28;20032;-77
2023/07/25 05:16:06;;;;;;;6.75;4.43;;;14.90;90.90;;;;;;5093892;28;20054;-79
2023/07/25 05:18:31;;;;;;;8.18;4.57;;;14.90;90.80;;;;;;5093855;28;20032;-79
2023/07/25 05:20:57;;;;;;;9.40;5.18;;;15.00;90.80;;;;;;5093778;28;20025;-80
2023/07/25 05:23:22;;;;;;;11.35;5.70;;;15.00;90.90;;;;;;5076963;28;20031;-80
2023/07/25 05:25:48;;;;;;;9.02;5.65;;;15.10;90.90;;;;;;5077029;28;20107;-79
2023/07/25 05:28:14;;;;;;;9.70;5.70;;;15.20;90.80;;;;;;5076887;28;20024;-80
2023/07/25 05:30:40;;;;;;;10.30;5.60;;;15.20;90.90;;;;;;5093500;28;20031;-81
2023/07/25 05:33:07;;;;;;;9.45;5.30;;;15.20;90.90;;;;;;5093414;28;20040;-80
2023/07/25 05:35:32;;;;;;;13.95;6.15;;;15.30;91.00;;;;;;5076733;28;20031;-80
2023/07/25 05:37:58;;;;;;;11.85;6.10;;;15.30;91.10;;;;;;5076688;28;20024;-80
2023/07/25 05:40:23;;;;;;;12.93;5.95;;;15.40;91.20;;;;;;5076663;28;20032;-80
2023/07/25 05:42:49;;;;;;;9.85;5.43;;;15.30;91.30;;;;;;5093316;28;20050;-80
2023/07/25 05:45:15;;;;;;;15.68;5.80;;;15.40;91.40;;;;;;5076582;28;20051;-80
2023/07/25 05:47:40;;;;;;;9.38;5.07;;;15.50;91.50;;;;;;5076657;28;20028;-79
2023/07/25 05:50:07;;;;;;;9.93;5.28;;;15.60;91.50;;;;;;5093458;28;20035;-79
2023/07/25 05:52:32;;;;;;;12.35;5.65;;;15.60;91.50;;;;;;5076299;28;20032;-81
2023/07/25 05:54:58;;;;;;;9.82;5.15;;;15.70;91.50;;;;;;5093006;28;20109;-81
2023/07/25 05:57:23;;;;;;;13.70;6.03;;;15.80;91.50;;;;;;5076347;28;20048;-80
2023/07/25 05:59:49;;;;;;;9.57;5.10;;;15.80;91.50;;;;;;5092930;28;20044;-81
2023/07/25 06:02:16;;;;;;;8.10;4.68;;;15.80;91.50;;;;;;5093035;28;20024;-80
2023/07/25 06:04:45;;;;;;;11.90;5.13;;;15.90;91.50;;;;;;5092909;28;20067;-82
2023/07/25 06:07:12;;;;;;;10.23;5.32;;;16.00;91.50;;;;;;5092828;28;20039;-81
2023/07/25 06:09:37;;;;;;;10.90;4.68;;;16.00;91.40;;;;;;5092843;28;20102;-81
2023/07/25 06:12:03;;;;;;;12.48;5.32;;;16.10;91.70;;;;;;5075227;28;20024;-81
2023/07/25 06:14:29;;;;;;;9.75;4.65;;;16.10;91.30;;;;;;5092802;28;20029;-81
2023/07/25 06:16:54;;;;;;;7.05;4.72;;;16.20;91.20;;;;;;5092802;28;20084;-81
2023/07/25 06:19:21;;;;;;;11.32;5.05;;;16.20;91.10;;;;;;5092753;28;20029;-80
2023/07/25 06:21:46;;;;;;;10.90;4.95;;;16.20;91.20;;;;;;5092622;28;20024;-81
2023/07/25 06:24:13;;;;;;;9.55;4.72;;;16.30;91.20;;;;;;5075887;28;20096;-81
2023/07/25 06:26:38;;;;;;;11.95;5.00;;;16.30;91.30;;;;;;5092634;28;20054;-80
2023/07/25 06:29:04;;;;;;;10.90;4.18;;;16.40;91.30;;;;;;5092620;28;20021;-82
2023/07/25 06:31:31;;;;;;;8.82;3.90;;;16.40;91.30;;;;;;5092669;28;20365;-82
2023/07/25 06:33:58;;;;;;;9.35;4.07;;;16.40;91.00;;;;;;5092454;28;20032;-82
2023/07/25 06:36:24;;;;;;;7.68;3.70;;;16.40;90.80;;;;;;5093466;28;20015;-81
2023/07/25 06:38:49;;;;;;;6.65;3.78;;;16.40;90.70;;;;;;5093407;28;20061;-81
2023/07/25 06:41:15;;;;;;;9.57;3.28;;;16.50;90.70;;;;;;5075647;28;20025;-82
2023/07/25 06:43:40;;;;;;;8.43;3.85;;;16.50;90.70;;;;;;5075663;28;20580;-79
2023/07/25 06:46:06;;;;;;;8.95;3.70;;;16.50;91.00;;;;;;5075647;28;20020;-81
2023/07/25 06:48:32;;;;;;;5.78;3.50;;;16.50;90.50;;;;;;5092605;28;20029;-81
2023/07/25 06:50:57;;;;;;;9.05;3.85;;;16.50;90.50;;;;;;5075811;28;20039;-82
2023/07/25 06:53:23;;;;;;;7.93;3.90;;;16.50;90.60;;;;;;5075506;28;20028;-81
2023/07/25 06:55:49;;;;;;;7.03;3.42;;;16.50;90.50;;;;;;5092388;28;20067;-79
2023/07/25 06:58:14;;;;;;;9.55;3.88;;;16.50;90.40;;;;;;5075247;28;20028;-79
2023/07/25 07:00:40;;;;;;;7.97;3.65;;;16.50;90.50;;;;;;5093233;28;20033;-80
2023/07/25 07:03:06;;;;;;;8.55;4.00;;;16.50;90.50;;;;;;5092290;28;20029;-79
2023/07/25 07:05:35;;;;;;;10.43;4.30;;;16.60;90.70;;;;;;5092329;28;20059;-80
2023/07/25 07:08:00;;;;;;;8.00;4.00;;;16.60;90.60;;;;;;5093122;28;20035;-79
2023/07/25 07:10:26;;;;;;;7.25;3.88;;;16.60;90.60;;;;;;5093108;28;20092;-79
2023/07/25 07:12:53;;;;;;;9.23;3.60;;;16.70;90.70;;;;;;5093064;28;20036;-79
2023/07/25 07:15:24;;;;;;;10.07;3.85;;;16.60;90.50;;;;;;5091910;28;20025;-79
2023/07/25 07:17:53;;;;;;;11.68;4.18;;;16.70;90.50;;;;;;5092113;28;20020;-80
2023/07/25 07:20:19;;;;;;;7.97;4.03;;;16.70;90.60;;;;;;5092056;28;20013;-79
2023/07/25 07:22:45;;;;;;;7.80;3.53;;;16.80;90.70;;;;;;5093053;28;20036;-79
2023/07/25 07:25:11;;;;;;;8.25;3.63;;;16.90;90.80;;;;;;5096935;28;20039;-79
2023/07/25 07:27:36;;;;;;;7.32;3.30;;;16.90;90.70;;;;;;5079140;28;20096;-79
2023/07/25 07:30:03;;;;;;;6.45;3.47;;;16.90;90.70;;;;;;5079200;28;20017;-79
2023/07/25 07:32:28;;;;;;;6.93;3.28;;;17.00;90.60;;;;;;5095820;28;20025;-79
2023/07/25 07:34:54;;;;;;;7.57;3.25;;;17.10;90.60;;;;;;5095614;28;20067;-79
2023/07/25 07:37:19;;;;;;;10.32;3.20;;;17.10;90.60;;;;;;5078971;28;20024;-79
2023/07/25 07:39:45;;;;;;;7.32;2.63;;;17.10;90.50;;;;;;5095657;28;20029;-79
2023/07/25 07:42:11;;;;;;;6.28;2.70;;;17.20;90.50;;;;;;5095664;28;20111;-78
2023/07/25 07:44:36;;;;;;;6.05;2.80;;;17.20;90.50;;;;;;5095622;28;20033;-78
2023/07/25 07:47:02;;;;;;;6.82;2.83;;;17.30;90.50;;;;;;5096521;28;20056;-79
2023/07/25 07:49:28;;;;;;;6.45;2.35;;;17.30;90.50;;;;;;5095442;28;20123;-79
2023/07/25 07:51:53;;;;;;;9.95;2.80;;;17.30;90.30;;;;;;5095582;28;20116;-79
2023/07/25 07:54:19;;;;;;;8.82;2.88;;;17.40;90.30;;;;;;5095379;28;20032;-79
2023/07/25 07:56:44;;;;;;;4.53;2.45;;;17.50;90.30;;;;;;5078664;28;20418;-80
2023/07/25 07:59:10;;;;;;;8.52;2.40;;;17.60;90.30;;;;;;5096050;28;20056;-78
2023/07/25 08:01:36;;;;;;;10.77;2.10;;;17.70;89.80;;;;;;5095288;28;20032;-80
2023/07/25 08:04:01;;;;;;;5.15;2.35;;;17.80;89.20;;;;;;5095183;28;20058;-79
2023/07/25 08:06:28;;;;;;;5.80;2.10;;;17.90;89.10;;;;;;5095193;28;20048;-79
2023/07/25 08:08:53;;;;;;;3.58;2.03;;;18.00;88.80;;;;;;5095184;28;20024;-80
2023/07/25 08:11:19;;;;;;;4.50;1.83;;;18.00;87.90;;;;;;5095030;28;20535;-80
2023/07/25 08:13:45;;;;;;;5.45;2.10;;;17.90;87.50;;;;;;5078348;28;20024;-80
2023/07/25 08:16:10;;;;;;;7.10;2.17;;;17.90;87.50;;;;;;5095091;28;20025;-79
2023/07/25 08:18:36;;;;;;;7.05;2.35;;;17.90;87.50;;;;;;5078325;28;20013;-79
2023/07/25 08:21:02;;;;;;;5.53;2.15;;;17.80;87.30;;;;;;5094834;28;20056;-81
2023/07/25 08:23:28;;;;;;;5.97;1.85;;;17.70;87.30;;;;;;5095983;28;20047;-81
2023/07/25 08:25:55;;;;;;;5.53;1.88;;;17.70;87.70;;;;;;5094807;28;20107;-81
2023/07/25 08:28:21;;;;;;;7.28;1.67;;;17.70;87.60;;;;;;5094796;28;20092;-80
2023/07/25 08:30:47;;;;;;;5.18;2.25;;;17.70;87.50;;;;;;5095764;28;20028;-81
2023/07/25 08:33:15;;;;;;;5.03;1.60;;;17.70;87.10;;;;;;5095680;28;20023;-82
2023/07/25 08:35:43;;;;;;;3.90;1.55;;;17.70;87.20;;;;;;5094392;28;20021;-81
2023/07/25 08:38:09;;;;;;;4.50;1.60;;;17.70;87.30;;;;;;5095558;28;20021;-82
2023/07/25 08:40:35;;;;;;;3.40;1.70;;;17.70;87.30;;;;;;5094659;28;20103;-81
2023/07/25 08:43:12;;;;;;;7.07;1.60;;;17.80;87.10;;;;;;5094680;28;20048;-84
2023/07/25 08:45:41;;;;;;;3.38;1.40;;;17.80;86.80;;;;;;5095508;28;20052;-83
2023/07/25 08:48:11;;;;;;;4.72;1.58;;;17.80;86.60;;;;;;5095399;28;20028;-83
2023/07/25 08:50:38;;;;;;;3.00;1.60;;;17.90;86.20;;;;;;5095703;28;20029;-82
2023/07/25 08:53:14;;;;;;;4.00;1.40;;;18.00;86.00;;;;;;5095347;28;20029;-80
2023/07/25 08:55:40;;;;;;;5.13;1.67;;;18.10;85.10;;;;;;5094262;28;20025;-80
2023/07/25 08:58:06;;;;;;;2.97;1.90;;;18.10;85.30;;;;;;5095351;28;20052;-80
2023/07/25 09:00:33;;;;;;;4.57;1.90;;;18.20;85.30;;;;;;5093942;28;20414;-83
2023/07/25 09:02:59;;;;;;;6.25;1.60;;;18.20;84.40;;;;;;5094099;28;20044;-83
2023/07/25 09:05:26;;;;;;;6.57;1.95;;;18.20;84.00;;;;;;5094357;28;20036;-82
2023/07/25 09:07:53;;;;;;;2.58;1.55;;;18.20;83.50;;;;;;5095044;28;20079;-83
2023/07/25 09:10:19;;;;;;;6.30;1.70;;;18.30;83.60;;;;;;5094153;28;20083;-82
2023/07/25 09:12:44;;;;;;;2.95;1.60;;;18.30;83.70;;;;;;5093869;28;20040;-82
2023/07/25 09:15:10;;;;;;;7.03;1.70;;;18.30;83.70;;;;;;5077109;28;20059;-83
2023/07/25 09:17:36;;;;;;;6.35;1.95;;;18.40;83.40;;;;;;5077384;28;20033;-83
2023/07/25 09:20:01;;;;;;;3.80;1.80;;;18.40;83.20;;;;;;5077131;28;20028;-81
2023/07/25 09:22:32;;;;;;;5.95;1.60;;;18.40;83.20;;;;;;5094804;28;20025;-81
2023/07/25 09:24:58;;;;;;;5.75;2.08;;;18.40;83.20;;;;;;5076920;28;20032;-82
2023/07/25 09:27:26;;;;;;;9.98;1.70;;;18.50;83.40;;;;;;5094620;28;20039;-82
2023/07/25 09:29:52;;;;;;;6.30;1.58;;;18.50;83.50;;;;;;5093844;28;20035;-82
2023/07/25 09:32:24;;;;;;;4.00;1.48;;;18.60;84.00;;;;;;5093628;28;20028;-82
2023/07/25 09:34:57;;;;;;;5.20;1.33;;;18.70;82.90;;;;;;5093369;28;20054;-83
2023/07/25 09:37:22;;;;;;;4.10;1.40;;;18.70;82.80;;;;;;5093477;28;20032;-82
2023/07/25 09:39:48;;;;;;;5.72;1.77;;;18.80;82.70;;;;;;5093515;28;20380;-84
2023/07/25 09:42:14;;;;;;;4.30;1.70;;;18.80;82.50;;;;;;5076554;28;20024;-82
2023/07/25 09:44:47;;;;;;;5.72;1.58;;;18.80;82.70;;;;;;5093269;28;20051;-81
2023/07/25 09:47:14;;;;;;;5.10;1.45;;;18.80;82.30;;;;;;5094137;28;20028;-81
2023/07/25 09:49:48;;;;;;;4.65;1.65;;;18.80;82.20;;;;;;5093207;28;20048;-82
2023/07/25 09:52:14;;;;;;;5.85;1.60;;;18.70;81.90;;;;;;5094127;28;20029;-82
2023/07/25 09:54:40;;;;;;;3.55;1.80;;;18.60;81.80;;;;;;5093994;28;20039;-80
2023/07/25 09:57:06;;;;;;;4.45;1.60;;;18.60;83.10;;;;;;5076432;28;20021;-80
2023/07/25 09:59:33;;;;;;;4.22;1.45;;;18.50;82.50;;;;;;5092929;28;20059;-80
2023/07/25 10:01:58;;;;;;;4.60;1.30;;;18.50;82.90;;;;;;5093946;28;20024;-80
2023/07/25 10:04:25;;;;;;;4.60;1.80;;;18.50;83.90;;;;;;5093860;28;20021;-81
2023/07/25 10:06:52;;;;;;;3.65;1.80;;;18.50;82.90;;;;;;5093887;28;20024;-80
2023/07/25 10:09:19;;;;;;;5.63;1.60;;;18.60;83.20;;;;;;5093842;28;20028;-80
2023/07/25 10:11:46;;;;;;;12.13;2.88;;;18.70;83.20;;;;;;5093784;28;20067;-81
2023/07/25 10:14:13;;;;;;;5.65;1.40;;;18.80;81.60;;;;;;5092637;28;20028;-81
2023/07/25 10:16:40;;;;;;;4.97;1.55;;;18.90;81.10;;;;;;5092799;28;20029;-81
2023/07/25 10:19:06;;;;;;;5.55;1.95;;;19.00;81.00;;;;;;5092626;28;20020;-80
2023/07/25 10:21:52;;;;;;;3.92;1.23;;;19.10;80.60;;;;;;5092601;28;20027;-80
2023/07/25 10:24:20;;;;;;;6.35;1.50;;;19.30;79.00;;;;;;5093661;28;20025;-79
2023/07/25 10:26:56;;;;;;;4.95;1.30;;;19.40;78.90;;;;;;5093672;28;20024;-79
2023/07/25 10:29:43;;;;;;;3.10;1.38;;;19.50;78.30;;;;;;5093536;28;20032;-79
2023/07/25 10:32:14;;;;;;;3.60;1.20;;;19.70;78.60;;;;;;5092617;28;20021;-80
2023/07/25 10:34:49;;;;;;;2.78;1.10;;;19.90;78.20;;;;;;5093715;28;20033;-79
2023/07/25 10:37:35;;;;;;;2.45;1.10;;;19.90;77.30;;;;;;5093826;28;20028;-80
2023/07/25 10:40:03;;;;;;;1.65;1.08;;;19.90;76.50;;;;;;5092404;28;20016;-80
2023/07/25 10:42:57;;;;;;;3.58;1.15;;;19.90;77.20;;;;;;5093424;28;20020;-81
2023/07/25 10:45:29;;;;;;;4.13;0.95;;;19.70;76.60;;;;;;5093479;28;20032;-81
2023/07/25 10:47:55;;;;;;;2.65;0.80;;;19.60;76.20;;;;;;5092331;28;20029;-79
2023/07/25 10:50:49;;;;;;;4.13;0.88;;;19.50;76.20;;;;;;5092307;28;20033;-79
2023/07/25 10:53:20;;;;;;;3.45;1.00;;;19.40;76.50;;;;;;5093466;28;20047;-79
2023/07/25 10:56:04;;;;;;;2.78;1.00;;;19.30;77.10;;;;;;5093486;28;20025;-79
2023/07/25 10:58:30;;;;;;;2.47;1.00;;;19.20;76.80;;;;;;5097756;28;20080;-79
2023/07/25 11:00:57;;;;;;;3.22;1.02;;;19.20;76.90;;;;;;5099931;28;20024;-78
2023/07/25 11:03:34;;;;;;;3.67;0.80;;;19.20;77.20;;;;;;5099898;28;20078;-78
2023/07/25 11:06:08;;;;;;;3.15;0.90;;;19.30;77.40;;;;;;5099922;28;20034;-78
2023/07/25 11:08:39;;;;;;;2.47;1.52;;;19.50;77.40;;;;;;5098851;28;20032;-78
2023/07/25 11:11:08;;;;;;;2.35;1.00;;;19.60;74.50;;;;;;5097903;28;20066;-79
2023/07/25 11:13:39;;;;;;;3.25;1.23;;;19.70;74.80;;;;;;5098690;28;20017;-78
2023/07/25 11:16:08;;;;;;;2.10;0.70;;;19.80;75.60;;;;;;5099813;28;20031;-79
2023/07/25 11:18:37;;;;;;;2.65;0.80;;;19.90;74.40;;;;;;5099747;28;20024;-78
2023/07/25 11:21:05;;;;;;;3.15;1.05;;;19.90;73.60;;;;;;5099690;28;20020;-75
2023/07/25 11:23:31;;;;;;;1.40;0.82;;;19.90;73.20;;;;;;5099721;28;20017;-80
2023/07/25 11:26:00;;;;;;;2.05;0.73;;;19.80;71.90;;;;;;5099629;28;20051;-80
2023/07/25 11:28:26;;;;;;;2.58;0.80;;;19.70;70.70;;;;;;5098742;28;20028;-79
2023/07/25 11:30:51;;;;;;;1.92;0.90;;;19.80;71.10;;;;;;5099590;28;20028;-78
2023/07/25 11:33:18;;;;;;;1.80;0.75;;;19.90;72.20;;;;;;5098582;28;20024;-79
2023/07/25 11:35:44;;;;;;;4.25;0.93;;;20.10;71.10;;;;;;5098441;28;20080;-78
2023/07/25 11:38:10;;;;;;;1.55;0.60;;;20.10;71.40;;;;;;5099643;28;20040;-80
2023/07/25 11:40:40;;;;;;;4.57;0.90;;;20.10;69.30;;;;;;5099556;28;20017;-76
2023/07/25 11:43:12;;;;;;;2.80;0.82;;;20.10;68.70;;;;;;5099594;28;20040;-80
2023/07/25 11:45:39;;;;;;;2.15;0.60;;;20.10;68.00;;;;;;5099491;28;20054;-77
2023/07/25 11:48:09;;;;;;;1.13;0.50;;;20.20;69.10;;;;;;5099587;28;20024;-77
2023/07/25 11:50:35;;;;;;;1.27;0.52;;;20.30;68.70;;;;;;5099618;28;20024;-76
2023/07/25 11:53:01;;;;;;;4.53;0.75;;;20.40;68.90;;;;;;5099432;28;20028;-76
2023/07/25 11:55:28;;;;;;;1.30;0.50;;;20.60;69.90;;;;;;5099346;28;20031;-77
2023/07/25 11:57:54;;;;;;;2.80;0.70;;;20.70;68.00;;;;;;5099372;28;20055;-80
2023/07/25 12:00:21;;;;;;;1.77;0.70;;;20.80;66.80;;;;;;5098058;28;20076;-77
2023/07/25 12:02:47;;;;;;;2.05;0.60;;;20.90;67.10;;;;;;5099323;28;20025;-77
2023/07/25 12:05:26;;;;;;;0.68;0.50;;;21.00;66.50;;;;;;5099308;28;20088;-77
2023/07/25 12:07:56;;;;;;;1.15;0.38;;;21.10;66.00;;;;;;5098301;28;20029;-76
2023/07/25 12:10:30;;;;;;;1.10;0.50;;;21.10;65.70;;;;;;5096362;28;20036;-76
2023/07/25 12:12:56;;;;;;;2.58;0.70;;;21.10;63.80;;;;;;5096039;28;20047;-77
2023/07/25 12:15:23;;;;;;;1.17;0.52;;;21.10;64.90;;;;;;5096062;28;20035;-79
2023/07/25 12:17:49;;;;;;;2.35;0.60;;;21.20;64.90;;;;;;5095980;28;20013;-76
2023/07/25 12:20:22;;;;;;;3.45;0.90;;;21.20;63.40;;;;;;5095933;28;20442;-77
2023/07/25 12:22:48;;;;;;;1.42;0.50;;;21.20;62.80;;;;;;5095073;28;20020;-78
2023/07/25 12:25:18;;;;;;;1.60;0.40;;;21.30;63.70;;;;;;5094984;28;20097;-81
2023/07/25 12:27:48;;;;;;;2.65;0.60;;;21.40;63.90;;;;;;5078061;28;20078;-78
2023/07/25 12:30:14;;;;;;;1.70;0.70;;;21.40;64.20;;;;;;5095034;28;20031;-78
2023/07/25 12:32:40;;;;;;;1.52;0.50;;;21.40;63.30;;;;;;5095707;28;20024;-74
2023/07/25 12:35:06;;;;;;;0.98;0.40;;;21.30;63.00;;;;;;5077861;28;20040;-74
2023/07/25 12:37:32;;;;;;;4.13;0.90;;;21.30;62.70;;;;;;5095633;28;20037;-75
2023/07/25 12:39:57;;;;;;;3.13;0.50;;;21.30;62.70;;;;;;5095622;28;20028;-78
2023/07/25 12:42:23;;;;;;;2.03;0.50;;;21.40;62.50;;;;;;5095553;28;20068;-78
2023/07/25 12:44:48;;;;;;;1.77;0.55;;;21.50;62.60;;;;;;5095496;28;20468;-77